Time;durP1;ratioP1;P1;durP2;ratioP2;P2;SDS_P1;SDS_P2;PMS_P1;PMS_P2;Temp;Humidity;BMP_temperature;BMP_pressure;BME280_temperature;BME280_humidity;BME280_pressure;Samples;Min_cycle;Max_cycle;Signal;HPM_P1;HPM_P2
2021/09/15 00:02:56;;;;;;;12.40;7.93;;;25.50;55.00;;;;;;6196122;28;80292;-64
2021/09/15 00:05:56;;;;;;;10.43;7.60;;;25.50;54.90;;;;;;6194845;28;81277;-63
2021/09/15 00:08:57;;;;;;;10.15;7.18;;;25.50;54.90;;;;;;6199389;28;80260;-63
2021/09/15 00:11:57;;;;;;;10.18;7.32;;;25.50;54.80;;;;;;6199566;28;81377;-63
2021/09/15 00:14:58;;;;;;;11.80;8.20;;;25.50;54.60;;;;;;6189988;28;80250;-63
2021/09/15 00:17:58;;;;;;;10.20;7.65;;;25.50;54.80;;;;;;6184764;28;80777;-64
2021/09/15 00:20:59;;;;;;;10.30;7.10;;;25.50;54.70;;;;;;6189515;28;80155;-64
2021/09/15 00:23:59;;;;;;;10.20;7.72;;;25.50;54.70;;;;;;6197255;28;81393;-63
2021/09/15 00:27:00;;;;;;;12.90;8.07;;;25.50;54.70;;;;;;6184638;28;80628;-63
2021/09/15 00:30:00;;;;;;;12.40;7.88;;;25.50;54.80;;;;;;6183883;28;83035;-64
2021/09/15 00:33:01;;;;;;;11.63;7.70;;;25.50;54.70;;;;;;6179129;28;81577;-64
2021/09/15 00:36:02;;;;;;;11.75;7.95;;;25.50;54.80;;;;;;6187435;28;81556;-64
2021/09/15 00:39:02;;;;;;;9.98;7.38;;;25.50;54.70;;;;;;6181296;28;81534;-63
2021/09/15 00:42:03;;;;;;;13.63;7.30;;;25.50;54.90;;;;;;6172002;28;81549;-63
2021/09/15 00:45:03;;;;;;;16.17;8.30;;;25.50;54.80;;;;;;6186168;28;81776;-63
2021/09/15 00:48:04;;;;;;;11.68;7.78;;;25.50;54.90;;;;;;6173742;28;82980;-63
2021/09/15 00:51:05;;;;;;;11.30;7.70;;;25.50;54.90;;;;;;6184517;28;80749;-64
2021/09/15 00:54:06;;;;;;;12.40;7.25;;;25.50;54.80;;;;;;6184875;28;81412;-64
2021/09/15 00:57:06;;;;;;;10.43;7.80;;;25.50;54.80;;;;;;6185110;28;82693;-63
2021/09/15 01:00:07;;;;;;;10.25;7.00;;;25.40;54.90;;;;;;6188909;28;81222;-63
2021/09/15 01:03:08;;;;;;;10.18;7.65;;;25.50;54.80;;;;;;6187056;28;83235;-63
2021/09/15 01:06:11;;;;;;;11.75;8.40;;;25.50;54.80;;;;;;6194008;28;80387;-63
2021/09/15 01:09:13;;;;;;;9.85;7.63;;;25.40;54.70;;;;;;6170341;28;83273;-64
2021/09/15 01:12:14;;;;;;;9.57;7.40;;;25.50;54.70;;;;;;6191548;28;82004;-64
2021/09/15 01:15:36;;;;;;;10.20;7.53;;;25.40;54.80;;;;;;6173036;28;83243;-64
2021/09/15 01:18:59;;;;;;;15.50;8.88;;;25.40;55.10;;;;;;6192796;28;80471;-63
2021/09/15 01:22:28;;;;;;;13.10;8.57;;;25.40;54.50;;;;;;6183886;28;80598;-63
2021/09/15 01:25:51;;;;;;;12.07;8.20;;;25.50;54.70;;;;;;6162396;28;86723;-64
2021/09/15 01:29:17;;;;;;;;;;;25.40;54.50;;;;;;6169604;28;82854;-64
2021/09/15 01:32:18;;;;;;;12.45;8.55;;;25.50;54.60;;;;;;6186519;28;82069;-64
2021/09/15 01:35:18;;;;;;;10.95;8.00;;;25.40;54.30;;;;;;6180452;28;80502;-64
2021/09/15 01:38:19;;;;;;;11.23;7.55;;;25.50;54.40;;;;;;6181899;28;83395;-64
2021/09/15 01:41:22;;;;;;;10.73;7.82;;;25.50;54.50;;;;;;6182605;28;80297;-64
2021/09/15 01:44:22;;;;;;;11.45;7.95;;;25.40;54.60;;;;;;6181433;28;80865;-64
2021/09/15 01:47:23;;;;;;;12.65;8.20;;;25.40;54.40;;;;;;6180324;28;83452;-65
2021/09/15 01:50:24;;;;;;;12.25;8.35;;;25.40;54.20;;;;;;6181124;28;82764;-63
2021/09/15 01:53:25;;;;;;;10.43;7.63;;;25.40;54.40;;;;;;6180752;28;82720;-64
2021/09/15 01:56:26;;;;;;;11.85;8.30;;;25.40;54.10;;;;;;6181469;28;83255;-64
2021/09/15 01:59:57;;;;;;;9.80;7.53;;;25.40;54.20;;;;;;6193861;28;81336;-64
2021/09/15 02:03:15;;;;;;;10.05;7.38;;;25.40;54.10;;;;;;6185232;28;80447;-64
2021/09/15 02:06:30;;;;;;;10.73;7.70;;;25.40;54.00;;;;;;6194048;28;81497;-65
2021/09/15 02:09:35;;;;;;;11.02;7.90;;;25.40;53.90;;;;;;6179013;28;82142;-64
2021/09/15 02:12:50;;;;;;;13.30;8.80;;;25.40;53.90;;;;;;6179304;28;81831;-64
2021/09/15 02:15:50;;;;;;;11.35;8.20;;;25.40;54.00;;;;;;6182375;28;81077;-64
2021/09/15 02:18:51;;;;;;;11.20;7.72;;;25.40;54.00;;;;;;6192119;28;82894;-63
2021/09/15 02:22:10;;;;;;;12.00;7.78;;;25.40;54.00;;;;;;6173727;28;81438;-63
2021/09/15 02:25:29;;;;;;;10.50;7.78;;;25.30;53.90;;;;;;6174704;28;83567;-64
2021/09/15 02:28:59;;;;;;;12.38;7.75;;;25.40;53.80;;;;;;6174666;28;81522;-63
2021/09/15 02:32:06;;;;;;;11.25;7.50;;;25.30;53.90;;;;;;6192561;28;83101;-64
2021/09/15 02:35:29;;;;;;;12.68;7.85;;;25.40;53.80;;;;;;6181906;28;80763;-64
2021/09/15 02:38:48;;;;;;;10.20;7.57;;;25.40;53.90;;;;;;6187841;28;80390;-64
2021/09/15 02:42:15;;;;;;;10.02;7.63;;;25.30;54.00;;;;;;6179727;28;82778;-63
2021/09/15 02:45:32;;;;;;;11.05;7.97;;;25.30;53.90;;;;;;6169327;28;82991;-64
2021/09/15 02:48:46;;;;;;;10.77;7.60;;;25.30;53.70;;;;;;6181411;28;83200;-64
2021/09/15 02:52:01;;;;;;;10.27;7.78;;;25.30;53.60;;;;;;6182799;28;84100;-64
2021/09/15 02:55:10;;;;;;;12.68;7.90;;;25.30;53.60;;;;;;6176401;28;83270;-63
2021/09/15 02:58:13;;;;;;;9.35;7.60;;;25.30;53.60;;;;;;6187161;28;82985;-63
2021/09/15 03:01:21;;;;;;;11.77;8.25;;;25.30;53.50;;;;;;6175775;28;82967;-63
2021/09/15 03:04:26;;;;;;;11.85;7.88;;;25.30;53.60;;;;;;6199008;28;80718;-64
2021/09/15 03:07:35;;;;;;;11.80;8.25;;;25.30;53.50;;;;;;6194402;28;87625;-64
2021/09/15 03:10:36;;;;;;;10.00;7.55;;;25.30;53.60;;;;;;6197230;28;82801;-63
2021/09/15 03:13:37;;;;;;;10.98;7.82;;;25.30;53.80;;;;;;6176647;28;83393;-64
2021/09/15 03:16:38;;;;;;;11.57;8.50;;;25.30;53.70;;;;;;6178337;28;82848;-64
2021/09/15 03:19:43;;;;;;;11.38;8.13;;;25.30;53.90;;;;;;6170282;28;82350;-64
2021/09/15 03:22:43;;;;;;;11.52;8.65;;;25.30;53.60;;;;;;6178566;28;82872;-64
2021/09/15 03:25:44;;;;;;;11.88;7.88;;;25.30;53.40;;;;;;6172808;28;82193;-64
2021/09/15 03:28:44;;;;;;;10.55;7.57;;;25.30;53.60;;;;;;6182707;28;83374;-64
2021/09/15 03:31:45;;;;;;;10.63;7.97;;;25.30;53.50;;;;;;6193659;28;81100;-64
2021/09/15 03:34:46;;;;;;;9.02;7.53;;;25.30;53.30;;;;;;6200360;28;82751;-64
2021/09/15 03:37:47;;;;;;;10.95;7.68;;;25.30;53.30;;;;;;6200457;28;82741;-64
2021/09/15 03:40:47;;;;;;;9.98;7.85;;;25.30;53.40;;;;;;6192652;28;81024;-64
2021/09/15 03:43:48;;;;;;;10.88;8.35;;;25.20;53.10;;;;;;6183072;28;82115;-64
2021/09/15 03:46:48;;;;;;;11.45;7.97;;;25.30;53.20;;;;;;6188355;28;80318;-64
2021/09/15 03:49:49;;;;;;;10.25;7.90;;;25.30;53.00;;;;;;6186859;28;83064;-64
2021/09/15 03:52:50;;;;;;;9.55;7.35;;;25.30;53.10;;;;;;6191892;28;80682;-64
2021/09/15 03:55:50;;;;;;;11.90;8.10;;;25.30;52.90;;;;;;6187021;28;83151;-63
2021/09/15 03:58:51;;;;;;;11.00;7.65;;;25.30;53.00;;;;;;6188693;28;81673;-65
2021/09/15 04:01:51;;;;;;;11.02;8.23;;;25.30;53.20;;;;;;6180950;28;80075;-64
2021/09/15 04:04:52;;;;;;;11.20;8.38;;;25.30;53.20;;;;;;6180730;28;81979;-65
2021/09/15 04:07:53;;;;;;;12.90;8.25;;;25.30;53.00;;;;;;6184278;28;83056;-65
2021/09/15 04:10:54;;;;;;;15.80;8.40;;;25.30;52.60;;;;;;6177590;28;82095;-65
2021/09/15 04:13:55;;;;;;;11.93;8.35;;;25.30;53.10;;;;;;6185675;28;82537;-64
2021/09/15 04:16:56;;;;;;;15.35;8.15;;;25.30;52.90;;;;;;6203180;28;81463;-65
2021/09/15 04:19:57;;;;;;;9.57;7.55;;;25.30;53.00;;;;;;6196371;28;83303;-65
2021/09/15 04:22:58;;;;;;;13.30;8.68;;;25.30;52.80;;;;;;6178444;28;81704;-64
2021/09/15 04:32:37;;;;;;;14.15;8.57;;;25.30;52.70;;;;;;6189626;28;80292;-65
2021/09/15 04:35:37;;;;;;;14.20;8.18;;;25.30;52.70;;;;;;6200040;28;83007;-65
2021/09/15 04:38:38;;;;;;;13.70;8.07;;;25.30;52.80;;;;;;6201057;28;80534;-64
2021/09/15 04:41:42;;;;;;;15.50;9.35;;;25.30;52.60;;;;;;6183356;28;82489;-65
2021/09/15 04:44:43;;;;;;;12.10;8.43;;;25.30;52.80;;;;;;6181083;28;83090;-64
2021/09/15 04:47:43;;;;;;;9.55;7.40;;;25.30;52.70;;;;;;6182950;28;83403;-64
2021/09/15 04:50:44;;;;;;;13.75;8.32;;;25.30;53.20;;;;;;6175983;28;82809;-64
2021/09/15 04:53:45;;;;;;;17.48;8.38;;;25.30;52.70;;;;;;6178597;28;82664;-65
2021/09/15 04:56:46;;;;;;;11.35;7.90;;;25.30;53.20;;;;;;6180656;28;81654;-65
2021/09/15 04:59:50;;;;;;;10.30;7.85;;;25.30;53.10;;;;;;6183931;28;82796;-65
2021/09/15 05:02:50;;;;;;;10.82;7.45;;;25.30;53.20;;;;;;6197065;28;83127;-64
2021/09/15 05:06:04;;;;;;;12.63;7.82;;;25.30;53.70;;;;;;6180971;28;81608;-64
2021/09/15 05:09:06;;;;;;;10.98;8.48;;;25.30;53.60;;;;;;6176627;28;83693;-66
2021/09/15 05:12:13;;;;;;;10.13;7.47;;;25.30;53.40;;;;;;6156911;28;81852;-64
2021/09/15 05:15:14;;;;;;;9.18;6.88;;;25.30;53.50;;;;;;6180881;28;82192;-64
2021/09/15 05:18:16;;;;;;;9.85;7.45;;;25.30;53.60;;;;;;6181685;28;81464;-64
2021/09/15 05:21:17;;;;;;;10.27;7.32;;;25.30;53.50;;;;;;6180452;28;83064;-65
2021/09/15 05:24:17;;;;;;;12.35;7.93;;;25.30;53.50;;;;;;6187425;28;83178;-64
2021/09/15 05:27:18;;;;;;;9.77;7.50;;;25.30;53.70;;;;;;6169078;28;83688;-63
2021/09/15 05:30:18;;;;;;;11.02;7.22;;;25.30;53.70;;;;;;6182171;28;81725;-64
2021/09/15 05:33:26;;;;;;;11.13;8.10;;;25.30;54.00;;;;;;6168709;28;84249;-63
2021/09/15 05:36:27;;;;;;;11.38;7.90;;;25.40;55.10;;;;;;6182065;28;81468;-64
2021/09/15 05:39:27;;;;;;;11.57;7.65;;;25.40;54.40;;;;;;6175641;28;80239;-65
2021/09/15 05:42:28;;;;;;;10.75;7.55;;;25.40;53.90;;;;;;6179029;28;82957;-64
2021/09/15 05:45:29;;;;;;;12.38;8.00;;;25.40;53.70;;;;;;6178008;28;87824;-65
2021/09/15 05:48:30;;;;;;;11.00;7.85;;;25.40;53.50;;;;;;6171325;28;83108;-65
2021/09/15 05:51:30;;;;;;;13.23;7.97;;;25.40;54.10;;;;;;6183318;28;80986;-64
2021/09/15 05:54:31;;;;;;;10.88;7.22;;;25.40;53.80;;;;;;6178255;28;81379;-65
2021/09/15 05:57:31;;;;;;;11.88;8.25;;;25.40;53.30;;;;;;6179246;28;81416;-64
2021/09/15 06:00:32;;;;;;;10.82;7.53;;;25.50;54.00;;;;;;6179372;28;83206;-63
2021/09/15 06:03:39;;;;;;;11.23;7.72;;;25.40;54.00;;;;;;6171435;28;83508;-63
2021/09/15 06:06:51;;;;;;;10.38;7.30;;;25.40;53.40;;;;;;6184931;28;80364;-63
2021/09/15 06:09:54;;;;;;;11.10;7.32;;;25.40;53.50;;;;;;6186476;28;82226;-63
2021/09/15 06:12:55;;;;;;;14.13;7.20;;;25.40;53.70;;;;;;6180355;28;83580;-63
2021/09/15 06:15:56;;;;;;;10.13;7.22;;;25.40;53.70;;;;;;6195215;28;81989;-64
2021/09/15 06:18:57;;;;;;;16.58;8.15;;;25.40;53.80;;;;;;6199121;28;82064;-63
2021/09/15 06:22:12;;;;;;;10.43;8.25;;;25.40;53.50;;;;;;6176434;28;80677;-64
2021/09/15 06:25:42;;;;;;;;;;;25.50;53.70;;;;;;6180072;28;87590;-64
2021/09/15 06:28:42;;;;;;;8.73;6.97;;;25.50;53.70;;;;;;6181826;28;80791;-63
2021/09/15 06:31:43;;;;;;;11.45;7.28;;;25.50;53.80;;;;;;6180890;28;80586;-64
2021/09/15 06:34:44;;;;;;;9.85;7.55;;;25.50;53.80;;;;;;6193013;28;82222;-63
2021/09/15 06:37:44;;;;;;;17.38;7.93;;;25.40;53.50;;;;;;6189874;28;81012;-61
2021/09/15 06:40:45;;;;;;;9.32;7.38;;;25.40;53.60;;;;;;6182882;28;81745;-62
2021/09/15 06:43:45;;;;;;;13.07;7.47;;;25.40;53.40;;;;;;6193738;28;82603;-62
2021/09/15 06:46:46;;;;;;;13.95;7.65;;;25.40;53.30;;;;;;6182401;28;80130;-61
2021/09/15 06:49:46;;;;;;;14.00;8.98;;;25.40;53.60;;;;;;6195590;28;81152;-61
2021/09/15 06:52:47;;;;;;;12.07;8.18;;;25.40;53.60;;;;;;6189874;28;80841;-63
2021/09/15 06:55:48;;;;;;;10.60;8.02;;;25.40;53.50;;;;;;6177424;28;80888;-61
2021/09/15 06:58:48;;;;;;;11.20;8.10;;;25.50;53.40;;;;;;6177327;28;80400;-61
2021/09/15 07:01:49;;;;;;;11.30;7.95;;;25.50;53.60;;;;;;6167339;28;84193;-62
2021/09/15 07:04:49;;;;;;;9.90;7.75;;;25.50;53.70;;;;;;6174623;28;80558;-61
2021/09/15 07:07:50;;;;;;;13.80;8.93;;;25.50;53.50;;;;;;6177730;28;80972;-62
2021/09/15 07:10:50;;;;;;;12.80;8.90;;;25.50;53.90;;;;;;6177479;28;80316;-62
2021/09/15 07:13:51;;;;;;;22.77;10.52;;;25.50;53.90;;;;;;6182967;28;82138;-62
2021/09/15 07:16:51;;;;;;;20.38;9.50;;;25.50;53.70;;;;;;6171828;28;83852;-62
2021/09/15 07:19:52;;;;;;;18.17;10.27;;;25.50;53.70;;;;;;6174579;28;84340;-62
2021/09/15 07:22:52;;;;;;;22.63;10.18;;;25.50;53.50;;;;;;6167282;28;82828;-62
2021/09/15 07:25:53;;;;;;;22.45;11.52;;;25.50;53.80;;;;;;6166846;28;84293;-63
2021/09/15 07:28:54;;;;;;;16.05;9.65;;;25.50;53.70;;;;;;6176259;28;85027;-61
2021/09/15 07:31:55;;;;;;;19.20;10.07;;;25.50;53.80;;;;;;6169747;28;82870;-62
2021/09/15 07:34:55;;;;;;;19.13;11.77;;;25.50;54.00;;;;;;6172158;28;83455;-62
2021/09/15 07:37:55;;;;;;;20.42;12.00;;;25.50;53.50;;;;;;6167544;28;82714;-61
2021/09/15 07:40:56;;;;;;;17.20;12.00;;;25.50;53.20;;;;;;6166154;28;83562;-62
2021/09/15 07:43:56;;;;;;;19.35;12.02;;;25.50;53.20;;;;;;6177931;28;82870;-61
2021/09/15 07:46:57;;;;;;;23.35;14.63;;;25.50;53.00;;;;;;6190676;28;83071;-61
2021/09/15 07:49:57;;;;;;;19.88;13.98;;;25.50;53.00;;;;;;6184467;28;87270;-61
2021/09/15 07:52:58;;;;;;;18.85;14.05;;;25.50;53.30;;;;;;6183169;28;84221;-61
2021/09/15 07:55:59;;;;;;;24.02;13.93;;;25.50;52.90;;;;;;6194676;28;83005;-61
2021/09/15 07:58:59;;;;;;;20.40;14.98;;;25.50;53.00;;;;;;6183016;28;83310;-61
2021/09/15 08:02:00;;;;;;;22.80;15.23;;;25.50;52.80;;;;;;6177218;28;84472;-61
2021/09/15 08:05:00;;;;;;;19.40;13.55;;;25.50;52.70;;;;;;6181952;28;83082;-60
2021/09/15 08:08:01;;;;;;;17.88;12.55;;;25.50;52.70;;;;;;6183851;28;83409;-61
2021/09/15 08:11:02;;;;;;;21.50;13.00;;;25.50;52.90;;;;;;6184766;28;82706;-61
2021/09/15 08:14:02;;;;;;;19.05;13.80;;;25.50;53.00;;;;;;6194885;28;82933;-61
2021/09/15 08:17:03;;;;;;;17.67;13.00;;;25.50;53.00;;;;;;6181028;28;82893;-61
2021/09/15 08:20:03;;;;;;;17.83;13.18;;;25.50;53.10;;;;;;6184544;28;84378;-61
2021/09/15 08:23:04;;;;;;;17.88;13.23;;;25.60;53.30;;;;;;6175534;28;82922;-61
2021/09/15 08:26:04;;;;;;;22.05;14.15;;;25.60;53.30;;;;;;6150831;28;87670;-61
2021/09/15 08:29:05;;;;;;;18.65;13.73;;;25.60;53.30;;;;;;6182913;28;83055;-61
2021/09/15 08:32:06;;;;;;;17.10;13.20;;;25.60;53.40;;;;;;6192463;28;83016;-61
2021/09/15 08:35:06;;;;;;;19.02;14.10;;;25.70;53.60;;;;;;6183442;28;83417;-62
2021/09/15 08:38:07;;;;;;;18.33;13.40;;;25.60;53.60;;;;;;6166690;28;82846;-62
2021/09/15 08:41:07;;;;;;;27.23;14.38;;;25.70;54.00;;;;;;6178451;28;83372;-62
2021/09/15 08:44:08;;;;;;;17.40;12.90;;;25.70;53.90;;;;;;6183892;28;83242;-62
2021/09/15 08:47:08;;;;;;;19.83;14.20;;;25.70;53.90;;;;;;6175154;28;84019;-60
2021/09/15 08:50:09;;;;;;;17.48;13.45;;;25.70;53.90;;;;;;6193889;28;83339;-62
2021/09/15 08:53:09;;;;;;;18.17;13.02;;;25.80;54.00;;;;;;6192611;28;83260;-61
2021/09/15 08:56:10;;;;;;;17.27;12.80;;;25.80;54.00;;;;;;6198584;28;83603;-61
2021/09/15 08:59:10;;;;;;;17.90;13.55;;;25.80;54.30;;;;;;6176177;28;83373;-63
2021/09/15 09:02:11;;;;;;;20.67;13.65;;;25.80;54.30;;;;;;6182723;28;83710;-62
2021/09/15 09:05:12;;;;;;;18.42;14.95;;;25.80;54.60;;;;;;6176119;28;83586;-61
2021/09/15 09:08:12;;;;;;;18.50;13.27;;;25.80;54.30;;;;;;6178052;28;84057;-62
2021/09/15 09:11:13;;;;;;;18.75;13.40;;;25.80;54.40;;;;;;6180050;28;85203;-62
2021/09/15 09:14:14;;;;;;;17.85;13.63;;;25.90;54.50;;;;;;6179457;28;83498;-62
2021/09/15 09:17:14;;;;;;;16.25;12.05;;;25.90;54.70;;;;;;6179858;28;83644;-62
2021/09/15 09:20:15;;;;;;;21.80;13.68;;;25.90;54.60;;;;;;6182409;28;83571;-61
2021/09/15 09:23:15;;;;;;;18.20;13.55;;;25.90;54.80;;;;;;6175571;28;83305;-61
2021/09/15 09:26:16;;;;;;;19.33;13.38;;;25.90;54.90;;;;;;6187989;28;83210;-61
2021/09/15 09:29:16;;;;;;;19.60;13.63;;;25.90;54.50;;;;;;6167334;28;83874;-62
2021/09/15 09:32:18;;;;;;;19.75;13.10;;;25.90;54.50;;;;;;6160150;28;85775;-62
2021/09/15 09:35:21;;;;;;;18.85;12.52;;;25.90;54.30;;;;;;6170727;28;85543;-62
2021/09/15 09:38:22;;;;;;;18.35;13.23;;;25.90;54.50;;;;;;6170629;28;84315;-62
2021/09/15 09:41:22;;;;;;;34.03;13.60;;;25.90;54.50;;;;;;6180533;28;83034;-62
2021/09/15 09:44:29;;;;;;;23.02;15.00;;;25.90;55.20;;;;;;6183295;28;86078;-62
2021/09/15 09:47:29;;;;;;;24.38;16.90;;;25.90;54.80;;;;;;6188919;28;84825;-62
2021/09/15 09:50:30;;;;;;;22.52;17.27;;;25.90;55.10;;;;;;6196206;28;84752;-62
2021/09/15 09:53:32;;;;;;;26.67;21.50;;;25.90;55.40;;;;;;6185589;28;86519;-62
2021/09/15 09:56:33;;;;;;;30.05;20.92;;;25.90;55.70;;;;;;6179795;28;83873;-62
2021/09/15 09:59:33;;;;;;;31.58;22.65;;;25.90;55.90;;;;;;6180513;28;85307;-63
2021/09/15 10:02:34;;;;;;;34.83;25.75;;;25.90;55.90;;;;;;6175430;28;82993;-62
2021/09/15 10:05:34;;;;;;;50.78;33.92;;;25.90;55.80;;;;;;6174192;28;84227;-62
2021/09/15 10:08:35;;;;;;;57.67;36.83;;;25.90;56.00;;;;;;6173994;28;83367;-62
2021/09/15 10:11:35;;;;;;;55.47;35.10;;;26.00;56.30;;;;;;6177761;28;82893;-62
2021/09/15 10:14:36;;;;;;;56.22;34.92;;;26.00;56.40;;;;;;6173566;28;83345;-62
2021/09/15 10:17:36;;;;;;;55.88;35.13;;;26.00;56.80;;;;;;6177788;28;83077;-62
2021/09/15 10:20:37;;;;;;;51.72;34.15;;;26.10;57.00;;;;;;6179726;28;83816;-61
2021/09/15 10:23:38;;;;;;;55.63;34.97;;;26.10;57.10;;;;;;6179660;28;83157;-62
2021/09/15 10:26:38;;;;;;;48.95;33.90;;;26.10;57.20;;;;;;6179760;28;83063;-61
2021/09/15 10:29:39;;;;;;;47.13;30.90;;;26.20;57.30;;;;;;6173827;28;83241;-62
2021/09/15 10:32:39;;;;;;;45.90;29.83;;;26.20;57.20;;;;;;6168349;28;83114;-63
2021/09/15 10:35:40;;;;;;;42.15;29.75;;;26.20;57.20;;;;;;6180195;28;83170;-61
2021/09/15 10:38:40;;;;;;;39.83;26.45;;;26.20;57.20;;;;;;6178211;28;83489;-62
2021/09/15 10:41:41;;;;;;;37.05;23.60;;;26.20;56.80;;;;;;6173620;28;83242;-62
2021/09/15 10:44:41;;;;;;;34.42;22.67;;;26.20;57.00;;;;;;6186688;28;83190;-62
2021/09/15 10:47:42;;;;;;;35.28;23.40;;;26.20;56.70;;;;;;6186655;28;83374;-62
2021/09/15 10:50:42;;;;;;;32.70;23.30;;;26.20;56.80;;;;;;6173901;28;84352;-62
2021/09/15 10:53:43;;;;;;;34.70;21.60;;;26.20;56.90;;;;;;6187127;28;82937;-61
2021/09/15 10:56:43;;;;;;;27.58;20.33;;;26.30;57.20;;;;;;6193727;28;83237;-61
2021/09/15 10:59:44;;;;;;;28.27;20.08;;;26.30;57.00;;;;;;6191371;28;83049;-63
2021/09/15 11:02:44;;;;;;;30.88;19.73;;;26.30;57.20;;;;;;6183337;28;84089;-63
2021/09/15 11:05:45;;;;;;;32.22;20.02;;;26.30;57.30;;;;;;6189885;28;83081;-61
2021/09/15 11:08:46;;;;;;;28.23;18.58;;;26.30;57.50;;;;;;6186201;28;83546;-60
2021/09/15 11:11:47;;;;;;;29.27;19.27;;;26.30;57.60;;;;;;6182162;28;83790;-61
2021/09/15 11:14:47;;;;;;;24.25;16.65;;;26.30;57.50;;;;;;6178984;28;83122;-61
2021/09/15 11:17:48;;;;;;;32.40;17.95;;;26.30;57.40;;;;;;6181673;28;84469;-61
2021/09/15 11:20:48;;;;;;;23.92;17.48;;;26.30;57.30;;;;;;6187413;28;83737;-62
2021/09/15 11:23:48;;;;;;;24.65;17.77;;;26.30;57.20;;;;;;6190936;28;82763;-61
2021/09/15 11:26:49;;;;;;;22.13;16.48;;;26.30;57.20;;;;;;6174763;28;90780;-61
2021/09/15 11:29:54;;;;;;;22.42;16.70;;;26.30;57.20;;;;;;6188153;28;83139;-62
2021/09/15 11:32:54;;;;;;;25.63;15.80;;;26.30;57.10;;;;;;6193764;28;84725;-61
2021/09/15 11:35:56;;;;;;;22.80;15.18;;;26.30;57.00;;;;;;6191195;28;83196;-61
2021/09/15 11:38:56;;;;;;;20.92;15.82;;;26.30;57.00;;;;;;6173897;28;83367;-62
2021/09/15 11:41:57;;;;;;;22.00;15.40;;;26.30;56.90;;;;;;6176367;28;82938;-62
2021/09/15 11:44:57;;;;;;;21.13;14.95;;;26.30;56.70;;;;;;6190123;28;82851;-62
2021/09/15 11:47:58;;;;;;;20.90;14.68;;;26.30;56.80;;;;;;6171596;28;82905;-62
2021/09/15 11:50:58;;;;;;;17.85;13.90;;;26.40;56.80;;;;;;6173855;28;83546;-63
2021/09/15 11:54:19;;;;;;;18.23;14.00;;;26.40;56.50;;;;;;6178458;28;82892;-63
2021/09/15 11:57:20;;;;;;;17.58;13.93;;;26.30;56.40;;;;;;6175876;28;83497;-62
2021/09/15 12:00:20;;;;;;;17.50;13.77;;;26.30;56.20;;;;;;6181133;28;84028;-62
2021/09/15 12:03:27;;;;;;;18.38;14.02;;;26.30;56.20;;;;;;6167425;28;83146;-62
2021/09/15 12:06:28;;;;;;;18.40;13.45;;;26.40;56.10;;;;;;6170673;28;83485;-61
2021/09/15 12:09:30;;;;;;;19.15;13.55;;;26.40;56.60;;;;;;6185128;28;83306;-62
2021/09/15 12:12:31;;;;;;;18.73;14.18;;;26.30;56.10;;;;;;6188350;28;84244;-61
2021/09/15 12:15:31;;;;;;;18.75;13.63;;;26.30;56.10;;;;;;6185383;28;86103;-61
2021/09/15 12:18:31;;;;;;;17.33;12.80;;;26.30;56.10;;;;;;6185803;28;82750;-62
2021/09/15 12:21:32;;;;;;;17.27;12.77;;;26.30;56.10;;;;;;6185179;28;83497;-62
2021/09/15 12:24:32;;;;;;;16.58;12.25;;;26.30;56.10;;;;;;6199222;28;82785;-63
2021/09/15 12:27:33;;;;;;;17.08;12.75;;;26.30;55.90;;;;;;6178759;28;83735;-61
2021/09/15 12:30:34;;;;;;;19.23;12.73;;;26.30;56.00;;;;;;6178633;28;83188;-62
2021/09/15 12:33:35;;;;;;;17.08;12.43;;;26.30;56.00;;;;;;6176461;28;83589;-61
2021/09/15 12:36:35;;;;;;;19.90;12.27;;;26.30;56.10;;;;;;6189164;28;83173;-61
2021/09/15 12:39:36;;;;;;;18.83;12.10;;;26.30;56.10;;;;;;6182095;28;83012;-63
2021/09/15 12:42:37;;;;;;;18.42;12.20;;;26.30;56.20;;;;;;6178824;28;83606;-63
2021/09/15 12:45:38;;;;;;;15.57;11.55;;;26.30;56.20;;;;;;6177640;28;85529;-63
2021/09/15 12:48:38;;;;;;;16.05;11.43;;;26.30;56.40;;;;;;6181301;28;84119;-63
2021/09/15 12:51:39;;;;;;;15.07;11.30;;;26.30;56.40;;;;;;6188213;28;83215;-63
2021/09/15 12:54:39;;;;;;;14.18;11.13;;;26.30;56.20;;;;;;6178936;28;83645;-63
2021/09/15 12:57:40;;;;;;;13.20;10.70;;;26.40;56.20;;;;;;6173466;28;83384;-62
2021/09/15 13:00:40;;;;;;;14.48;11.18;;;26.30;56.80;;;;;;6184819;28;84238;-63
2021/09/15 13:03:41;;;;;;;16.70;11.35;;;26.30;56.30;;;;;;6169182;28;83238;-62
2021/09/15 13:06:41;;;;;;;13.60;10.70;;;26.20;57.00;;;;;;6171939;28;86204;-63
2021/09/15 13:09:42;;;;;;;12.90;9.93;;;26.30;56.50;;;;;;6187144;28;85251;-63
2021/09/15 13:12:42;;;;;;;12.20;9.70;;;26.40;56.40;;;;;;6183732;28;82375;-61
2021/09/15 13:15:43;;;;;;;12.63;10.38;;;26.30;56.40;;;;;;6178677;28;81626;-61
2021/09/15 13:18:43;;;;;;;13.68;9.80;;;26.30;56.40;;;;;;6174643;28;83067;-61
2021/09/15 13:21:43;;;;;;;12.98;9.65;;;26.30;56.80;;;;;;6175144;28;83600;-62
2021/09/15 13:24:45;;;;;;;12.15;9.52;;;26.30;56.60;;;;;;6178555;28;80450;-61
2021/09/15 13:27:46;;;;;;;12.57;9.88;;;26.30;56.50;;;;;;6173994;28;80482;-61
2021/09/15 13:30:47;;;;;;;11.75;9.70;;;26.30;56.70;;;;;;6181393;28;80564;-62
2021/09/15 13:33:48;;;;;;;14.40;9.85;;;26.30;56.50;;;;;;6175257;28;80747;-62
2021/09/15 13:36:48;;;;;;;12.68;9.85;;;26.30;56.50;;;;;;6183938;28;81524;-61
2021/09/15 13:39:49;;;;;;;11.98;9.10;;;26.30;56.50;;;;;;6181799;28;80345;-62
2021/09/15 13:42:49;;;;;;;13.45;9.80;;;26.30;56.60;;;;;;6177265;28;80949;-63
2021/09/15 13:45:49;;;;;;;11.55;9.77;;;26.30;56.50;;;;;;6171503;28;80584;-62
2021/09/15 13:48:50;;;;;;;11.35;9.20;;;26.30;56.50;;;;;;6174930;28;80642;-62
2021/09/15 13:51:50;;;;;;;13.18;9.55;;;26.30;56.50;;;;;;6174856;28;80858;-62
2021/09/15 13:54:51;;;;;;;11.25;9.13;;;26.30;56.40;;;;;;6178274;28;80545;-62
2021/09/15 13:57:52;;;;;;;12.32;8.77;;;26.40;56.50;;;;;;6182590;28;80420;-63
2021/09/15 14:00:52;;;;;;;11.10;8.07;;;26.40;56.40;;;;;;6180081;28;80188;-63
2021/09/15 14:03:53;;;;;;;11.20;9.05;;;26.40;56.50;;;;;;6179281;28;80491;-63
2021/09/15 14:06:53;;;;;;;13.05;8.70;;;26.40;56.50;;;;;;6183090;28;80909;-63
2021/09/15 14:09:54;;;;;;;9.80;8.02;;;26.30;56.50;;;;;;6181982;28;80400;-64
2021/09/15 14:12:54;;;;;;;12.82;9.05;;;26.30;56.60;;;;;;6181023;28;80366;-64
2021/09/15 14:15:55;;;;;;;10.98;8.38;;;26.30;56.50;;;;;;6178183;28;80415;-63
2021/09/15 14:18:55;;;;;;;11.32;9.60;;;26.30;56.40;;;;;;6181340;28;80690;-62
2021/09/15 14:21:55;;;;;;;11.07;8.30;;;26.30;56.40;;;;;;6181766;28;81004;-63
2021/09/15 14:24:56;;;;;;;9.40;8.07;;;26.30;56.30;;;;;;6182498;28;80373;-62
2021/09/15 14:27:58;;;;;;;10.88;8.20;;;26.40;56.30;;;;;;6178727;28;80703;-62
2021/09/15 14:30:59;;;;;;;10.00;7.88;;;26.40;56.30;;;;;;6182646;28;80418;-62
2021/09/15 14:33:59;;;;;;;9.82;8.05;;;26.30;56.30;;;;;;6180499;28;81923;-62
2021/09/15 14:37:00;;;;;;;11.25;8.10;;;26.40;56.30;;;;;;6176174;28;80565;-63
2021/09/15 14:40:00;;;;;;;9.60;8.38;;;26.40;56.40;;;;;;6181440;28;80328;-63
2021/09/15 14:43:26;;;;;;;9.53;7.73;;;26.40;56.50;;;;;;6175467;28;80850;-63
2021/09/15 14:46:27;;;;;;;9.77;7.95;;;26.40;56.70;;;;;;6181213;28;82595;-63
2021/09/15 14:49:27;;;;;;;9.98;7.50;;;26.40;56.50;;;;;;6187064;28;80684;-63
2021/09/15 14:52:28;;;;;;;11.30;8.82;;;26.40;56.30;;;;;;6179153;28;82957;-64
2021/09/15 14:55:28;;;;;;;11.50;7.63;;;26.30;56.20;;;;;;6186579;28;80817;-63
2021/09/15 14:58:30;;;;;;;14.35;7.95;;;26.30;56.40;;;;;;6184006;28;80628;-63
2021/09/15 15:01:30;;;;;;;13.25;8.63;;;26.30;56.50;;;;;;6188162;28;86887;-62
2021/09/15 15:04:31;;;;;;;9.95;7.68;;;26.30;56.80;;;;;;6174515;28;80550;-64
2021/09/15 15:07:31;;;;;;;11.57;8.27;;;26.30;57.00;;;;;;6176919;28;80946;-63
2021/09/15 15:10:32;;;;;;;9.70;8.27;;;26.30;57.00;;;;;;6182178;28;81602;-63
2021/09/15 15:13:32;;;;;;;9.32;8.10;;;26.30;56.90;;;;;;6176874;28;80573;-63
2021/09/15 15:16:32;;;;;;;10.95;8.45;;;26.30;57.10;;;;;;6184158;28;80555;-63
2021/09/15 15:19:33;;;;;;;10.73;8.68;;;26.30;57.20;;;;;;6180288;28;80294;-63
2021/09/15 15:22:33;;;;;;;12.70;8.40;;;26.30;56.90;;;;;;6181263;28;80487;-63
2021/09/15 15:25:34;;;;;;;11.10;7.10;;;26.30;56.90;;;;;;6182081;28;80327;-63
2021/09/15 15:28:34;;;;;;;10.98;8.32;;;26.30;56.80;;;;;;6193096;28;81006;-62
2021/09/15 15:31:35;;;;;;;12.73;9.35;;;26.30;56.70;;;;;;6194363;28;81411;-63
2021/09/15 15:34:35;;;;;;;9.85;8.57;;;26.30;56.60;;;;;;6182433;28;81491;-63
2021/09/15 15:37:36;;;;;;;10.38;8.27;;;26.30;56.70;;;;;;6180360;28;80858;-63
2021/09/15 15:40:36;;;;;;;9.65;8.27;;;26.30;56.60;;;;;;6183430;28;81774;-63
2021/09/15 15:43:37;;;;;;;10.27;8.30;;;26.30;56.80;;;;;;6183499;28;80464;-63